Terminal Aerodrome Forecast
Issued by NWS Knoxville/Tri Cities, TN

Home | Current Version | Previous Version | Text Only | Print | Product List | Glossary On
Versions: 1 2 3 4 5 6 7 8 9 10 11 12 13 14 15 16 17 18 19 20 21 22 23 24 25 26
000
FTUS44 KMRX 212321
TAFCHA
TAF
KCHA 212321Z 2200/2224 14006KT P6SM SCT100 BKN250
     FM220600 VRB04KT P6SM BKN050
     FM221200 12009KT P6SM VCSH BKN035
     FM221500 13012KT 6SM -SHRA SCT010 OVC020=

USA.gov is the U.S. government's official web portal to all federal, state and local government web resources and services.